Orchid Ace — 7JDE — position and weather

sailwx.info

Track history (hours):
 
Tides and Currents Weather Stations Pressure Air Temp Water Temp Dewpoint Dewpoint Depression Visibility Wind Speed Wind Dir Waves Ship Positions

Orchid Ace

Last reported at 2017-Jul-12 04:34 UTC. Time now 2017-Jul-21 04:33 UTC.
Position N 35°26' W 127°54'.
Warning: this ship's position is 8 days out of date.

Length 200 m; draft 8.5 m.

Type: Cargo ship. MMSI: 432651000.

Date/timePositionNaut miles runAvg speedWind from/ knotsBaromVisibWave heightAir tempDewpointWater temp
2017-Jul-12 04:34N 35°26' W 127°54'116.8
2017-Jul-12 04:30N 35°25' W 127°53'1117.1
2017-Jul-12 03:50N 35°18' W 127°42'617.1
2017-Jul-12 03:28N 35°14' W 127°36'817.0
2017-Jul-12 02:59N 35°10' W 127°28'817.2
2017-Jul-12 02:30N 35°05' W 127°20'1416.9
2017-Jul-12 01:39N 34°56' W 127°06'317.1
2017-Jul-12 01:30N 34°55' W 127°03'816.9
2017-Jul-12 01:00N 34°50' W 126°55'916.8
2017-Jul-12 00:29N 34°44' W 126°46'816.6
2017-Jul-12 00:00N 34°40' W 126°38'816.8
2017-Jul-11 23:30N 34°35' W 126°30'916.9
2017-Jul-11 22:59N 34°30' W 126°22'816.8
2017-Jul-11 22:30N 34°25' W 126°14'816.6
2017-Jul-11 22:00N 34°20' W 126°05'816.5
2017-Jul-11 21:30N 34°15' W 125°57'816.4
2017-Jul-11 21:00N 34°10' W 125°50'816.5
2017-Jul-11 20:30N 34°05' W 125°42'816.8
2017-Jul-11 20:00N 34°00' W 125°33'816.7
2017-Jul-11 19:30N 33°55' W 125°25'916.7
2017-Jul-11 18:59N 33°50' W 125°17'916.8
2017-Jul-11 18:25N 33°45' W 125°07'716.7
2017-Jul-11 18:00N 33°41' W 125°01'916.9
2017-Jul-11 17:30N 33°40' W 124°50'917.3
2017-Jul-11 17:00N 33°40' W 124°40'816.1
2017-Jul-11 16:30N 33°40' W 124°30'714.1
2017-Jul-11 16:00N 33°40' W 124°22'714.2
2017-Jul-11 15:30N 33°40' W 124°13'714.2
2017-Jul-11 15:00N 33°41' W 124°05'714.0
2017-Jul-11 14:30N 33°41' W 123°57'714.1
2017-Jul-11 14:00N 33°41' W 123°48'714.1
2017-Jul-11 13:30N 33°41' W 123°40'714.1
2017-Jul-11 13:00N 33°41' W 123°31'713.9
2017-Jul-11 12:30N 33°41' W 123°23'713.8
2017-Jul-11 12:00N 33°42' W 123°15'713.5
2017-Jul-11 11:30N 33°42' W 123°06'713.2
2017-Jul-11 11:00N 33°42' W 122°59'713.5
2017-Jul-11 10:30N 33°42' W 122°50'713.4
2017-Jul-11 10:00N 33°42' W 122°42'713.1
2017-Jul-11 09:27N 33°42' W 122°34'613.0
2017-Jul-11 08:58N 33°42' W 122°26'1013.0
2017-Jul-11 08:10N 33°42' W 122°14'313.1
2017-Jul-11 07:56N 33°42' W 122°10'613.3
2017-Jul-11 07:27N 33°43' W 122°02'613.5
2017-Jul-11 07:00N 33°43' W 121°55'713.6
2017-Jul-11 06:30N 33°43' W 121°47'713.7
2017-Jul-11 05:58N 33°43' W 121°38'613.5
2017-Jul-11 05:30N 33°43' W 121°31'713.9
2017-Jul-11 05:00N 33°43' W 121°22'714.1
2017-Jul-11 04:30N 33°43' W 121°14'714.0
2017-Jul-11 04:00N 33°43' W 121°05'714.0
2017-Jul-11 03:30N 33°44' W 120°57'713.9
2017-Jul-11 03:00N 33°44' W 120°48'714.3
2017-Jul-11 02:30N 33°44' W 120°40'714.9
2017-Jul-11 02:00N 33°44' W 120°31'815.2
2017-Jul-11 01:30N 33°44' W 120°22'714.6
2017-Jul-11 01:01N 33°44' W 120°13'714.1
2017-Jul-11 00:30N 33°44' W 120°04'714.1
2017-Jul-11 00:00N 33°45' W 119°56'714.6
2017-Jul-10 23:30N 33°45' W 119°47'815.2
2017-Jul-10 23:00N 33°46' W 119°38'714.6
2017-Jul-10 22:30N 33°48' W 119°30'714.8
2017-Jul-10 22:00N 33°51' W 119°22'714.9
2017-Jul-10 21:30N 33°55' W 119°14'713.2
2017-Jul-10 21:00N 34°02' W 119°12'611.9
2017-Jul-10 20:30N 34°08' W 119°13'2 3.6
2017-Jul-10 20:00N 34°09' W 119°12'0 0.0
2017-Jul-10 19:24N 34°09' W 119°12'0 0.0
2017-Jul-10 19:00N 34°09' W 119°12'0 0.0
2017-Jul-10 18:30N 34°09' W 119°12'0 0.0
2017-Jul-10 18:00N 34°09' W 119°12'0 0.0
2017-Jul-10 17:31N 34°09' W 119°12'0 0.0
2017-Jul-10 17:00N 34°09' W 119°12'0 0.0
2017-Jul-10 16:30N 34°09' W 119°12'0 0.0
2017-Jul-10 16:00N 34°09' W 119°12'0 0.0
2017-Jul-10 15:30N 34°09' W 119°12'0 0.0
2017-Jul-10 15:00N 34°09' W 119°12'0 0.0
2017-Jul-10 14:28N 34°09' W 119°12'1 2.5
2017-Jul-10 14:01N 34°08' W 119°13'3 5.3
2017-Jul-10 13:31N 34°06' W 119°14'1 1.9
2017-Jul-10 13:01N 34°05' W 119°14'2 3.7
2017-Jul-10 12:30N 34°03' W 119°13'3 6.0
2017-Jul-10 12:00N 34°02' W 119°10'4 7.1
2017-Jul-10 11:30N 33°60' W 119°06'4 7.3
2017-Jul-10 11:00N 33°58' W 119°02'4 7.6
2017-Jul-10 10:30N 33°56' W 118°58'4 7.7
2017-Jul-10 10:00N 33°54' W 118°54'4 7.8
2017-Jul-10 09:30N 33°52' W 118°50'4 7.9
2017-Jul-10 09:00N 33°50' W 118°46'4 8.0
2017-Jul-10 08:30N 33°48' W 118°42'4 8.2
2017-Jul-10 08:01N 33°46' W 118°38'4 8.3
2017-Jul-10 07:29N 33°44' W 118°33'4 8.3
2017-Jul-10 07:01N 33°42' W 118°29'4 8.2
2017-Jul-10 06:30N 33°40' W 118°25'4 8.0
2017-Jul-10 06:00N 33°38' W 118°20'4 7.7
2017-Jul-10 05:31N 33°38' W 118°16'4 7.4
2017-Jul-10 05:00N 33°39' W 118°11'4 7.5
2017-Jul-10 04:31N 33°43' W 118°11'2 4.6
2017-Jul-10 04:00N 33°45' W 118°13'0 0.0
2017-Jul-10 03:30N 33°45' W 118°13'0 0.0
2017-Jul-10 03:00N 33°45' W 118°13'0 0.0
2017-Jul-10 02:30N 33°45' W 118°13'0 0.0
2017-Jul-10 02:00N 33°45' W 118°13'0 0.0
2017-Jul-10 01:30N 33°45' W 118°13'0 0.0
2017-Jul-10 00:57N 33°45' W 118°13'0 0.0
2017-Jul-10 00:30N 33°45' W 118°13'0 0.0
2017-Jul-10 00:00N 33°45' W 118°13'0 0.0
2017-Jul-09 23:30N 33°45' W 118°13'0 0.0
2017-Jul-09 23:00N 33°45' W 118°13'0 0.0
2017-Jul-09 22:30N 33°45' W 118°13'0 0.0
2017-Jul-09 22:00N 33°45' W 118°13'0 0.0
2017-Jul-09 21:21N 33°45' W 118°13'0 0.0
2017-Jul-09 21:00N 33°45' W 118°13'0 0.0
2017-Jul-09 20:30N 33°45' W 118°13'0 0.0
2017-Jul-09 20:00N 33°45' W 118°13'0 0.0
2017-Jul-09 19:30N 33°45' W 118°13'0 0.0
2017-Jul-09 19:00N 33°45' W 118°13'0 0.0
2017-Jul-09 18:30N 33°45' W 118°13'0 0.0
2017-Jul-09 18:00N 33°45' W 118°13'0 0.0
2017-Jul-09 17:30N 33°45' W 118°13'0 0.0
2017-Jul-09 17:00N 33°45' W 118°13'0 0.0
2017-Jul-09 16:30N 33°45' W 118°13'0 0.0
2017-Jul-09 16:00N 33°45' W 118°13'0 0.0
2017-Jul-09 15:30N 33°45' W 118°13'0 0.0
2017-Jul-09 15:00N 33°45' W 118°13'0 0.0
2017-Jul-09 14:30N 33°45' W 118°13'0 0.0
2017-Jul-09 14:00N 33°45' W 118°13'0 0.0
2017-Jul-09 13:30N 33°45' W 118°13'0 0.0
2017-Jul-09 13:00N 33°45' W 118°13'0 0.0
2017-Jul-09 12:30N 33°45' W 118°13'0 0.0
2017-Jul-09 12:00N 33°45' W 118°13'0 0.0
2017-Jul-09 11:30N 33°45' W 118°13'0 0.0
2017-Jul-09 11:00N 33°45' W 118°13'0 0.0
2017-Jul-09 10:30N 33°45' W 118°13'0 0.0
2017-Jul-09 10:00N 33°45' W 118°13'0 0.0
2017-Jul-09 09:30N 33°45' W 118°13'0 0.0
2017-Jul-09 09:00N 33°45' W 118°13'0 0.0
2017-Jul-09 08:30N 33°45' W 118°13'0 0.0
2017-Jul-09 08:00N 33°45' W 118°13'0 0.0
2017-Jul-09 07:30N 33°45' W 118°13'0 0.0
2017-Jul-09 07:00N 33°45' W 118°13'0 0.0
2017-Jul-09 06:30N 33°45' W 118°13'0 0.2
2017-Jul-09 06:00N 33°45' W 118°13'1 2.6
2017-Jul-09 05:30N 33°44' W 118°12'4 8.8
2017-Jul-09 05:00N 33°39' W 118°10'4 7.8
2017-Jul-09 04:30N 33°36' W 118°09'4 8.1
2017-Jul-09 04:00N 33°32' W 118°08'4 8.1
2017-Jul-09 03:30N 33°28' W 118°06'4 8.0
2017-Jul-09 03:00N 33°24' W 118°05'4 7.9
2017-Jul-09 02:30N 33°20' W 118°03'4 7.8
2017-Jul-09 02:00N 33°17' W 118°01'4 7.7
2017-Jul-09 01:30N 33°13' W 117°59'4 7.4
2017-Jul-09 01:00N 33°10' W 117°58'4 7.9
2017-Jul-09 00:30N 33°06' W 117°56'611.2
2017-Jul-09 00:00N 33°01' W 117°53'611.5
2017-Jul-08 23:30N 32°56' W 117°50'611.1
2017-Jul-08 23:00N 32°51' W 117°47'611.1
2017-Jul-08 22:30N 32°46' W 117°43'611.0
2017-Jul-08 22:00N 32°42' W 117°40'4 8.4
2017-Jul-08 21:30N 32°38' W 117°38'612.9
2017-Jul-08 21:00N 32°32' W 117°36'714.6
2017-Jul-08 20:31N 32°24' W 117°35'714.3
2017-Jul-08 20:00N 32°17' W 117°34'714.0
2017-Jul-08 19:30N 32°11' W 117°31'713.9
2017-Jul-08 19:00N 32°04' W 117°28'713.9
2017-Jul-08 18:30N 31°58' W 117°25'714.0
2017-Jul-08 18:00N 31°51' W 117°23'714.4
2017-Jul-08 17:30N 31°44' W 117°21'714.5
2017-Jul-08 17:00N 31°37' W 117°18'814.6
2017-Jul-08 16:27N 31°29' W 117°16'914.9
2017-Jul-08 15:52N 31°21' W 117°13'615.4
2017-Jul-08 15:30N 31°15' W 117°11'917.8
2017-Jul-08 15:00N 31°07' W 117°08'1818.0
2017-Jul-08 14:00N 30°50' W 117°02'2417.7
2017-Jul-08 12:39N 30°27' W 116°53'617.4
2017-Jul-08 12:18N 30°21' W 116°51'517.4
2017-Jul-08 12:00N 30°16' W 116°50'917.2
2017-Jul-08 11:30N 30°08' W 116°47'916.9
2017-Jul-08 11:00N 29°60' W 116°44'1216.8
2017-Jul-08 10:16N 29°48' W 116°40'516.9
2017-Jul-08 10:00N 29°44' W 116°38'816.6
2017-Jul-08 09:30N 29°36' W 116°36'916.6
2017-Jul-08 08:58N 29°27' W 116°33'4817.0
2017-Jul-08 06:09N 28°41' W 116°17'317.5
2017-Jul-08 06:00N 28°39' W 116°16'1817.5
2017-Jul-08 05:00N 28°22' W 116°10'917.4
2017-Jul-08 04:30N 28°14' W 116°07'1017.0
2017-Jul-08 03:55N 28°04' W 116°04'1017.0
2017-Jul-08 03:21N 27°56' W 115°59'1217.2
2017-Jul-08 02:38N 27°45' W 115°51'417.5
2017-Jul-08 02:26N 27°42' W 115°49'817.7
2017-Jul-08 02:00N 27°36' W 115°45'1817.3
2017-Jul-08 00:58N 27°21' W 115°35'817.5
2017-Jul-08 00:30N 27°14' W 115°30'917.6
2017-Jul-08 00:00N 27°06' W 115°25'1517.6
2017-Jul-07 23:09N 26°53' W 115°16'317.3
2017-Jul-07 22:59N 26°51' W 115°14'6515.3
2017-Jul-07 18:44N 25°57' W 114°33'2214.1
2017-Jul-07 17:12N 25°41' W 114°17'3216.6
2017-Jul-07 15:18N 25°18' W 113°54'3817.1
2017-Jul-07 13:03N 24°50' W 113°25'1717.1
2017-Jul-07 12:02N 24°37' W 113°12'  
Track history (hours):
 
Tides and Currents Weather Stations Pressure Air Temp Water Temp Dewpoint Dewpoint Depression Visibility Wind Speed Wind Dir Waves Ship Positions

Orchid Ace

Last reported at 2017-Jul-12 04:34 UTC. Time now 2017-Jul-21 04:33 UTC.
Position N 35°26' W 127°54'.
Warning: this ship's position is 8 days out of date.

Length 200 m; draft 8.5 m.

Type: Cargo ship. MMSI: 432651000.

Date/timePositionNaut miles runAvg speedWind from/ knotsBaromVisibWave heightAir tempDewpointWater temp
2017-Jul-12 04:34N 35°26' W 127°54'116.8
2017-Jul-12 04:30N 35°25' W 127°53'1117.1
2017-Jul-12 03:50N 35°18' W 127°42'617.1
2017-Jul-12 03:28N 35°14' W 127°36'817.0
2017-Jul-12 02:59N 35°10' W 127°28'817.2
2017-Jul-12 02:30N 35°05' W 127°20'1416.9
2017-Jul-12 01:39N 34°56' W 127°06'317.1
2017-Jul-12 01:30N 34°55' W 127°03'816.9
2017-Jul-12 01:00N 34°50' W 126°55'916.8
2017-Jul-12 00:29N 34°44' W 126°46'816.6
2017-Jul-12 00:00N 34°40' W 126°38'816.8
2017-Jul-11 23:30N 34°35' W 126°30'916.9
2017-Jul-11 22:59N 34°30' W 126°22'816.8
2017-Jul-11 22:30N 34°25' W 126°14'816.6
2017-Jul-11 22:00N 34°20' W 126°05'816.5
2017-Jul-11 21:30N 34°15' W 125°57'816.4
2017-Jul-11 21:00N 34°10' W 125°50'816.5
2017-Jul-11 20:30N 34°05' W 125°42'816.8
2017-Jul-11 20:00N 34°00' W 125°33'816.7
2017-Jul-11 19:30N 33°55' W 125°25'916.7
2017-Jul-11 18:59N 33°50' W 125°17'916.8
2017-Jul-11 18:25N 33°45' W 125°07'716.7
2017-Jul-11 18:00N 33°41' W 125°01'916.9
2017-Jul-11 17:30N 33°40' W 124°50'917.3
2017-Jul-11 17:00N 33°40' W 124°40'816.1
2017-Jul-11 16:30N 33°40' W 124°30'714.1
2017-Jul-11 16:00N 33°40' W 124°22'714.2
2017-Jul-11 15:30N 33°40' W 124°13'714.2
2017-Jul-11 15:00N 33°41' W 124°05'714.0
2017-Jul-11 14:30N 33°41' W 123°57'714.1
2017-Jul-11 14:00N 33°41' W 123°48'714.1
2017-Jul-11 13:30N 33°41' W 123°40'714.1
2017-Jul-11 13:00N 33°41' W 123°31'713.9
2017-Jul-11 12:30N 33°41' W 123°23'713.8
2017-Jul-11 12:00N 33°42' W 123°15'713.5
2017-Jul-11 11:30N 33°42' W 123°06'713.2
2017-Jul-11 11:00N 33°42' W 122°59'713.5
2017-Jul-11 10:30N 33°42' W 122°50'713.4
2017-Jul-11 10:00N 33°42' W 122°42'713.1
2017-Jul-11 09:27N 33°42' W 122°34'613.0
2017-Jul-11 08:58N 33°42' W 122°26'1013.0
2017-Jul-11 08:10N 33°42' W 122°14'313.1
2017-Jul-11 07:56N 33°42' W 122°10'613.3
2017-Jul-11 07:27N 33°43' W 122°02'613.5
2017-Jul-11 07:00N 33°43' W 121°55'713.6
2017-Jul-11 06:30N 33°43' W 121°47'713.7
2017-Jul-11 05:58N 33°43' W 121°38'613.5
2017-Jul-11 05:30N 33°43' W 121°31'713.9
2017-Jul-11 05:00N 33°43' W 121°22'714.1
2017-Jul-11 04:30N 33°43' W 121°14'714.0
2017-Jul-11 04:00N 33°43' W 121°05'714.0
2017-Jul-11 03:30N 33°44' W 120°57'713.9
2017-Jul-11 03:00N 33°44' W 120°48'714.3
2017-Jul-11 02:30N 33°44' W 120°40'714.9
2017-Jul-11 02:00N 33°44' W 120°31'815.2
2017-Jul-11 01:30N 33°44' W 120°22'714.6
2017-Jul-11 01:01N 33°44' W 120°13'714.1
2017-Jul-11 00:30N 33°44' W 120°04'714.1
2017-Jul-11 00:00N 33°45' W 119°56'714.6
2017-Jul-10 23:30N 33°45' W 119°47'815.2
2017-Jul-10 23:00N 33°46' W 119°38'714.6
2017-Jul-10 22:30N 33°48' W 119°30'714.8
2017-Jul-10 22:00N 33°51' W 119°22'714.9
2017-Jul-10 21:30N 33°55' W 119°14'713.2
2017-Jul-10 21:00N 34°02' W 119°12'611.9
2017-Jul-10 20:30N 34°08' W 119°13'2 3.6
2017-Jul-10 20:00N 34°09' W 119°12'0 0.0
2017-Jul-10 19:24N 34°09' W 119°12'0 0.0
2017-Jul-10 19:00N 34°09' W 119°12'0 0.0
2017-Jul-10 18:30N 34°09' W 119°12'0 0.0
2017-Jul-10 18:00N 34°09' W 119°12'0 0.0
2017-Jul-10 17:31N 34°09' W 119°12'0 0.0
2017-Jul-10 17:00N 34°09' W 119°12'0 0.0
2017-Jul-10 16:30N 34°09' W 119°12'0 0.0
2017-Jul-10 16:00N 34°09' W 119°12'0 0.0
2017-Jul-10 15:30N 34°09' W 119°12'0 0.0
2017-Jul-10 15:00N 34°09' W 119°12'0 0.0
2017-Jul-10 14:28N 34°09' W 119°12'1 2.5
2017-Jul-10 14:01N 34°08' W 119°13'3 5.3
2017-Jul-10 13:31N 34°06' W 119°14'1 1.9
2017-Jul-10 13:01N 34°05' W 119°14'2 3.7
2017-Jul-10 12:30N 34°03' W 119°13'3 6.0
2017-Jul-10 12:00N 34°02' W 119°10'4 7.1
2017-Jul-10 11:30N 33°60' W 119°06'4 7.3
2017-Jul-10 11:00N 33°58' W 119°02'4 7.6
2017-Jul-10 10:30N 33°56' W 118°58'4 7.7
2017-Jul-10 10:00N 33°54' W 118°54'4 7.8
2017-Jul-10 09:30N 33°52' W 118°50'4 7.9
2017-Jul-10 09:00N 33°50' W 118°46'4 8.0
2017-Jul-10 08:30N 33°48' W 118°42'4 8.2
2017-Jul-10 08:01N 33°46' W 118°38'4 8.3
2017-Jul-10 07:29N 33°44' W 118°33'4 8.3
2017-Jul-10 07:01N 33°42' W 118°29'4 8.2
2017-Jul-10 06:30N 33°40' W 118°25'4 8.0
2017-Jul-10 06:00N 33°38' W 118°20'4 7.7
2017-Jul-10 05:31N 33°38' W 118°16'4 7.4
2017-Jul-10 05:00N 33°39' W 118°11'4 7.5
2017-Jul-10 04:31N 33°43' W 118°11'2 4.6
2017-Jul-10 04:00N 33°45' W 118°13'0 0.0
2017-Jul-10 03:30N 33°45' W 118°13'0 0.0
2017-Jul-10 03:00N 33°45' W 118°13'0 0.0
2017-Jul-10 02:30N 33°45' W 118°13'0 0.0
2017-Jul-10 02:00N 33°45' W 118°13'0 0.0
2017-Jul-10 01:30N 33°45' W 118°13'0 0.0
2017-Jul-10 00:57N 33°45' W 118°13'0 0.0
2017-Jul-10 00:30N 33°45' W 118°13'0 0.0
2017-Jul-10 00:00N 33°45' W 118°13'0 0.0
2017-Jul-09 23:30N 33°45' W 118°13'0 0.0
2017-Jul-09 23:00N 33°45' W 118°13'0 0.0
2017-Jul-09 22:30N 33°45' W 118°13'0 0.0
2017-Jul-09 22:00N 33°45' W 118°13'0 0.0
2017-Jul-09 21:21N 33°45' W 118°13'0 0.0
2017-Jul-09 21:00N 33°45' W 118°13'0 0.0
2017-Jul-09 20:30N 33°45' W 118°13'0 0.0
2017-Jul-09 20:00N 33°45' W 118°13'0 0.0
2017-Jul-09 19:30N 33°45' W 118°13'0 0.0
2017-Jul-09 19:00N 33°45' W 118°13'0 0.0
2017-Jul-09 18:30N 33°45' W 118°13'0 0.0
2017-Jul-09 18:00N 33°45' W 118°13'0 0.0
2017-Jul-09 17:30N 33°45' W 118°13'0 0.0
2017-Jul-09 17:00N 33°45' W 118°13'0 0.0
2017-Jul-09 16:30N 33°45' W 118°13'0 0.0
2017-Jul-09 16:00N 33°45' W 118°13'0 0.0
2017-Jul-09 15:30N 33°45' W 118°13'0 0.0
2017-Jul-09 15:00N 33°45' W 118°13'0 0.0
2017-Jul-09 14:30N 33°45' W 118°13'0 0.0
2017-Jul-09 14:00N 33°45' W 118°13'0 0.0
2017-Jul-09 13:30N 33°45' W 118°13'0 0.0
2017-Jul-09 13:00N 33°45' W 118°13'0 0.0
2017-Jul-09 12:30N 33°45' W 118°13'0 0.0
2017-Jul-09 12:00N 33°45' W 118°13'0 0.0
2017-Jul-09 11:30N 33°45' W 118°13'0 0.0
2017-Jul-09 11:00N 33°45' W 118°13'0 0.0
2017-Jul-09 10:30N 33°45' W 118°13'0 0.0
2017-Jul-09 10:00N 33°45' W 118°13'0 0.0
2017-Jul-09 09:30N 33°45' W 118°13'0 0.0
2017-Jul-09 09:00N 33°45' W 118°13'0 0.0
2017-Jul-09 08:30N 33°45' W 118°13'0 0.0
2017-Jul-09 08:00N 33°45' W 118°13'0 0.0
2017-Jul-09 07:30N 33°45' W 118°13'0 0.0
2017-Jul-09 07:00N 33°45' W 118°13'0 0.0
2017-Jul-09 06:30N 33°45' W 118°13'0 0.2
2017-Jul-09 06:00N 33°45' W 118°13'1 2.6
2017-Jul-09 05:30N 33°44' W 118°12'4 8.8
2017-Jul-09 05:00N 33°39' W 118°10'4 7.8
2017-Jul-09 04:30N 33°36' W 118°09'4 8.1
2017-Jul-09 04:00N 33°32' W 118°08'4 8.1
2017-Jul-09 03:30N 33°28' W 118°06'4 8.0
2017-Jul-09 03:00N 33°24' W 118°05'4 7.9
2017-Jul-09 02:30N 33°20' W 118°03'4 7.8
2017-Jul-09 02:00N 33°17' W 118°01'4 7.7
2017-Jul-09 01:30N 33°13' W 117°59'4 7.4
2017-Jul-09 01:00N 33°10' W 117°58'4 7.9
2017-Jul-09 00:30N 33°06' W 117°56'611.2
2017-Jul-09 00:00N 33°01' W 117°53'611.5
2017-Jul-08 23:30N 32°56' W 117°50'611.1
2017-Jul-08 23:00N 32°51' W 117°47'611.1
2017-Jul-08 22:30N 32°46' W 117°43'611.0
2017-Jul-08 22:00N 32°42' W 117°40'4 8.4
2017-Jul-08 21:30N 32°38' W 117°38'612.9
2017-Jul-08 21:00N 32°32' W 117°36'714.6
2017-Jul-08 20:31N 32°24' W 117°35'714.3
2017-Jul-08 20:00N 32°17' W 117°34'714.0
2017-Jul-08 19:30N 32°11' W 117°31'713.9
2017-Jul-08 19:00N 32°04' W 117°28'713.9
2017-Jul-08 18:30N 31°58' W 117°25'714.0
2017-Jul-08 18:00N 31°51' W 117°23'714.4
2017-Jul-08 17:30N 31°44' W 117°21'714.5
2017-Jul-08 17:00N 31°37' W 117°18'814.6
2017-Jul-08 16:27N 31°29' W 117°16'914.9
2017-Jul-08 15:52N 31°21' W 117°13'615.4
2017-Jul-08 15:30N 31°15' W 117°11'917.8
2017-Jul-08 15:00N 31°07' W 117°08'1818.0
2017-Jul-08 14:00N 30°50' W 117°02'2417.7
2017-Jul-08 12:39N 30°27' W 116°53'617.4
2017-Jul-08 12:18N 30°21' W 116°51'517.4
2017-Jul-08 12:00N 30°16' W 116°50'917.2
2017-Jul-08 11:30N 30°08' W 116°47'916.9
2017-Jul-08 11:00N 29°60' W 116°44'1216.8
2017-Jul-08 10:16N 29°48' W 116°40'516.9
2017-Jul-08 10:00N 29°44' W 116°38'816.6
2017-Jul-08 09:30N 29°36' W 116°36'916.6
2017-Jul-08 08:58N 29°27' W 116°33'4817.0
2017-Jul-08 06:09N 28°41' W 116°17'317.5
2017-Jul-08 06:00N 28°39' W 116°16'1817.5
2017-Jul-08 05:00N 28°22' W 116°10'917.4
2017-Jul-08 04:30N 28°14' W 116°07'1017.0
2017-Jul-08 03:55N 28°04' W 116°04'1017.0
2017-Jul-08 03:21N 27°56' W 115°59'1217.2
2017-Jul-08 02:38N 27°45' W 115°51'417.5
2017-Jul-08 02:26N 27°42' W 115°49'817.7
2017-Jul-08 02:00N 27°36' W 115°45'1817.3
2017-Jul-08 00:58N 27°21' W 115°35'817.5
2017-Jul-08 00:30N 27°14' W 115°30'917.6
2017-Jul-08 00:00N 27°06' W 115°25'1517.6
2017-Jul-07 23:09N 26°53' W 115°16'317.3
2017-Jul-07 22:59N 26°51' W 115°14'6515.3
2017-Jul-07 18:44N 25°57' W 114°33'2214.1
2017-Jul-07 17:12N 25°41' W 114°17'3216.6
2017-Jul-07 15:18N 25°18' W 113°54'3817.1
2017-Jul-07 13:03N 24°50' W 113°25'1717.1
2017-Jul-07 12:02N 24°37' W 113°12'  

Dump ship's entire track history